createdAt,value
2018-11-12T09:16:38.216Z,12.43
2018-11-12T09:19:06.711Z,12.90
2018-11-12T09:21:35.025Z,13.00
2018-11-12T09:24:03.272Z,13.40
2018-11-12T09:26:31.585Z,11.47
2018-11-12T09:28:59.922Z,9.20
2018-11-12T13:02:09.172Z,3.53
2018-11-12T13:04:38.265Z,3.10
2018-11-12T13:07:06.618Z,3.00
2018-11-12T13:09:34.853Z,2.90
2018-11-12T13:12:03.208Z,3.23
2018-11-12T13:14:31.665Z,2.63
2018-11-12T13:48:15.814Z,1.33
2018-11-12T13:50:44.229Z,2.20
2018-11-12T13:53:12.588Z,1.13
2018-11-12T13:55:41.041Z,2.30
2018-11-12T13:58:09.418Z,2.50
2018-11-12T14:00:37.819Z,2.10
2018-11-12T14:16:04.788Z,3.20
2018-11-12T14:18:33.131Z,3.30
2018-11-12T14:21:01.951Z,4.07
2018-11-12T14:23:30.168Z,3.80
2018-11-12T14:25:58.582Z,4.93
2018-11-12T14:28:27.033Z,4.67
2018-11-12T14:30:55.257Z,4.97
2018-11-12T14:46:15.335Z,5.57
2018-11-12T14:48:44.048Z,4.73
2018-11-12T14:51:12.526Z,5.10
2018-11-12T14:53:40.757Z,5.63
2018-11-12T14:56:09.126Z,5.20
2018-11-12T14:58:37.484Z,5.03
2018-11-12T15:01:05.768Z,5.23
2018-11-12T15:03:34.125Z,5.70
2018-11-12T15:06:03.088Z,5.73
2018-11-12T15:08:31.488Z,6.63
2018-11-12T15:10:59.830Z,5.37
2018-11-12T15:13:28.225Z,5.70
2018-11-12T15:15:56.566Z,5.90
2018-11-12T18:20:22.709Z,10.37
2018-11-12T18:22:51.881Z,11.67
2018-11-12T18:25:20.142Z,13.27
2018-11-12T18:28:01.090Z,12.80
2018-11-12T18:30:33.451Z,12.80
2018-11-12T20:32:18.432Z,8.60
2018-11-12T20:34:54.247Z,8.80
2018-11-12T20:37:35.141Z,8.80
2018-11-12T20:40:03.467Z,5.77
2018-11-12T20:42:31.865Z,5.03
2018-11-12T20:45:00.620Z,4.30
2018-11-12T20:47:28.916Z,6.97
2018-11-12T20:49:57.356Z,6.70
2018-11-12T20:52:25.678Z,7.90
2018-11-12T20:54:54.099Z,11.73
2018-11-12T20:57:22.454Z,6.73
2018-11-12T20:59:51.342Z,9.83
2018-11-12T21:02:19.715Z,6.27
2018-11-12T21:39:14.661Z,10.93
2018-11-12T21:41:53.082Z,6.80
2018-11-12T21:44:29.018Z,6.53
2018-11-12T21:47:04.819Z,8.10
2018-11-12T21:49:40.714Z,6.83
2018-11-12T21:52:16.619Z,11.17
2018-11-12T21:54:53.037Z,5.30
2018-11-12T21:57:28.603Z,9.90
2018-11-12T22:00:09.055Z,2.47
